Time;durP1;ratioP1;P1;durP2;ratioP2;P2;SDS_P1;SDS_P2;PMS_P1;PMS_P2;Temp;Humidity;BMP_temperature;BMP_pressure;BME280_temperature;BME280_humidity;BME280_pressure;Samples;Min_cycle;Max_cycle;Signal;HPM_P1;HPM_P2
2022/06/06 00:01:52;;;;;;;;;13.00;13.00;;;;;19.35;53.41;101261.34;4942794;28;46116;-47
2022/06/06 00:04:20;;;;;;;;;15.00;13.50;;;;;19.30;53.88;101261.53;4942533;28;45321;-50
2022/06/06 00:06:46;;;;;;;;;13.25;13.25;;;;;19.28;53.62;101258.94;4942918;28;45279;-50
2022/06/06 00:09:14;;;;;;;;;13.00;13.00;;;;;19.26;53.92;101259.94;4942886;28;45389;-47
2022/06/06 00:11:40;;;;;;;;;15.50;15.50;;;;;19.23;53.88;101268.06;4942780;28;46317;-48
2022/06/06 00:14:08;;;;;;;;;17.50;15.00;;;;;19.20;53.67;101268.19;4942577;28;45327;-46
2022/06/06 00:16:35;;;;;;;;;15.00;15.00;;;;;19.13;53.53;101251.59;4942721;28;45429;-48
2022/06/06 00:19:02;;;;;;;;;8.25;7.75;;;;;19.11;53.92;101254.31;4942896;28;45405;-45
2022/06/06 00:21:28;;;;;;;;;10.00;9.75;;;;;19.07;53.70;101260.72;4942568;28;46299;-45
2022/06/06 00:23:54;;;;;;;;;8.25;8.25;;;;;19.02;53.72;101262.72;4942818;28;45415;-46
2022/06/06 00:26:19;;;;;;;;;11.50;10.25;;;;;19.01;53.43;101263.63;4942837;28;45280;-45
2022/06/06 00:28:45;;;;;;;;;11.00;10.00;;;;;18.97;53.46;101275.34;4942630;28;45229;-47
2022/06/06 00:36:42;;;;;;;;;9.50;9.50;;;;;18.87;53.55;101257.94;4942953;28;45323;-45
2022/06/06 00:39:11;;;;;;;;;8.75;8.75;;;;;18.82;53.49;101253.69;4942426;28;45490;-45
2022/06/06 00:41:39;;;;;;;;;11.00;11.00;;;;;18.76;53.61;101251.28;4940896;28;46773;-43
2022/06/06 00:44:05;;;;;;;;;12.25;10.00;;;;;18.75;53.43;101257.53;4942162;28;45240;-46
2022/06/06 00:46:34;;;;;;;;;10.50;9.50;;;;;18.70;53.47;101256.00;4941200;28;45855;-44
2022/06/06 00:49:01;;;;;;;;;13.00;11.75;;;;;18.67;53.65;101256.97;4942211;28;45517;-49
2022/06/06 00:51:26;;;;;;;;;9.00;8.00;;;;;18.65;53.52;101254.38;4942240;28;45453;-44
2022/06/06 00:53:55;;;;;;;;;9.75;8.00;;;;;18.64;53.72;101251.75;4942119;28;45324;-45
2022/06/06 00:56:34;;;;;;;;;11.25;8.50;;;;;18.63;53.58;101250.06;4942558;28;45305;-46
2022/06/06 00:59:05;;;;;;;;;10.75;8.00;;;;;18.61;53.82;101251.91;4941993;28;45451;-50
2022/06/06 01:01:34;;;;;;;;;8.50;6.75;;;;;18.59;53.47;101257.28;4940743;28;45269;-46
2022/06/06 01:04:03;;;;;;;;;7.25;7.25;;;;;18.60;53.53;101251.03;4942365;28;45350;-48
2022/06/06 01:06:33;;;;;;;;;6.25;6.25;;;;;18.58;53.38;101244.91;4941083;28;45344;-46
2022/06/06 01:09:00;;;;;;;;;5.25;4.25;;;;;18.58;53.47;101244.91;4942155;28;45473;-47
2022/06/06 01:11:25;;;;;;;;;6.75;6.75;;;;;18.59;53.46;101243.09;4940713;28;48262;-46
2022/06/06 01:13:54;;;;;;;;;11.25;8.00;;;;;18.58;53.46;101244.91;4941183;28;45255;-48
2022/06/06 01:17:00;;;;;;;;;4.25;4.25;;;;;18.57;53.72;101245.84;4941610;28;45239;-49
2022/06/06 01:19:58;;;;;;;;;8.50;8.50;;;;;18.58;53.68;101241.34;4936359;28;45417;-50
2022/06/06 01:23:02;;;;;;;;;11.75;10.75;;;;;18.57;53.83;101244.97;4941862;28;46233;-46
2022/06/06 01:26:01;;;;;;;;;9.00;8.00;;;;;18.57;53.74;101239.66;4926412;28;45521;-47
2022/06/06 01:28:29;;;;;;;;;8.00;8.00;;;;;18.54;53.83;101237.09;4941931;28;45314;-46
2022/06/06 01:30:58;;;;;;;;;9.00;9.00;;;;;18.49;53.49;101229.31;4941673;28;45484;-45
2022/06/06 01:33:24;;;;;;;;;12.50;11.00;;;;;18.50;53.65;101225.72;4941906;28;46311;-49
2022/06/06 01:35:52;;;;;;;;;8.00;7.00;;;;;18.49;53.86;101238.16;4940318;28;45364;-47
2022/06/06 01:38:21;;;;;;;;;10.50;10.50;;;;;18.46;53.81;101243.59;4942010;28;45350;-48
2022/06/06 01:41:10;;;;;;;;;3.25;3.25;;;;;18.44;53.86;101234.81;4941495;28;45201;-46
2022/06/06 01:43:50;;;;;;;;;11.50;8.50;;;;;18.41;53.85;101236.72;4941497;28;45419;-45
2022/06/06 01:46:26;;;;;;;;;10.25;10.25;;;;;18.39;53.94;101243.88;4941649;28;45344;-45
2022/06/06 01:48:53;;;;;;;;;10.75;10.00;;;;;18.33;53.73;101227.25;4941602;28;45228;-46
2022/06/06 01:51:23;;;;;;;;;11.25;9.00;;;;;18.35;53.92;101240.47;4941671;28;45228;-47
2022/06/06 01:53:48;;;;;;;;;8.50;7.25;;;;;18.30;54.00;101238.00;4941367;28;46407;-49
2022/06/06 01:56:20;;;;;;;;;7.50;7.50;;;;;18.26;54.02;101231.06;4941621;28;45217;-46
2022/06/06 01:58:45;;;;;;;;;9.25;7.50;;;;;18.24;53.71;101232.94;4939309;28;45328;-44
2022/06/06 02:01:11;;;;;;;;;7.75;7.50;;;;;18.24;53.99;101226.72;4941445;28;45322;-45
2022/06/06 02:03:36;;;;;;;;;10.00;8.25;;;;;18.22;53.92;101233.91;4941370;28;46249;-45
2022/06/06 02:06:04;;;;;;;;;9.50;7.50;;;;;18.18;53.60;101227.84;4941459;28;45679;-48
2022/06/06 02:08:31;;;;;;;;;7.50;7.50;;;;;18.18;53.70;101222.53;4941516;28;45261;-44
2022/06/06 02:10:56;;;;;;;;;7.00;6.00;;;;;18.15;53.76;101226.16;4941204;28;45248;-47
2022/06/06 02:13:22;;;;;;;;;7.00;7.00;;;;;18.12;53.68;101218.28;4939557;28;46957;-47
2022/06/06 02:15:47;;;;;;;;;9.75;7.75;;;;;18.12;54.04;101217.44;4940002;28;45233;-47
2022/06/06 02:18:13;;;;;;;;;7.25;6.25;;;;;18.09;53.92;101213.09;4941362;28;45368;-45
2022/06/06 02:20:39;;;;;;;;;8.00;6.50;;;;;18.08;53.71;101206.03;4941411;28;45347;-44
2022/06/06 02:23:04;;;;;;;;;6.75;6.50;;;;;18.07;53.89;101217.59;4941070;28;45429;-47
2022/06/06 02:25:31;;;;;;;;;8.50;7.00;;;;;18.07;53.88;101214.94;4941465;28;45327;-45
2022/06/06 02:27:57;;;;;;;;;7.00;6.00;;;;;18.04;53.72;101215.06;4944626;28;45331;-45
2022/06/06 02:30:27;;;;;;;;;5.00;5.00;;;;;18.01;53.75;101217.84;4944454;28;45481;-50
2022/06/06 02:32:53;;;;;;;;;4.25;4.25;;;;;17.95;53.72;101215.41;4943984;28;47005;-46
2022/06/06 02:35:25;;;;;;;;;6.25;6.00;;;;;17.92;53.82;101213.69;4943217;28;45310;-47
2022/06/06 02:37:52;;;;;;;;;5.00;5.00;;;;;17.89;53.77;101216.47;4944610;28;45246;-48
2022/06/06 02:40:19;;;;;;;;;4.50;4.00;;;;;17.84;53.62;101218.44;4944097;28;45486;-48
2022/06/06 02:42:45;;;;;;;;;6.25;6.25;;;;;17.78;54.13;101219.53;4943990;28;45402;-47
2022/06/06 02:45:15;;;;;;;;;4.75;4.75;;;;;17.73;53.69;101221.50;4944233;28;45283;-45
2022/06/06 02:47:41;;;;;;;;;7.00;5.75;;;;;17.68;53.98;101227.00;4944093;28;45277;-45
2022/06/06 02:50:08;;;;;;;;;4.75;4.75;;;;;17.60;53.96;101217.56;4942808;28;45207;-47
2022/06/06 02:52:34;;;;;;;;;3.75;3.75;;;;;17.55;53.65;101218.56;4944115;28;46507;-45
2022/06/06 02:55:01;;;;;;;;;5.00;4.75;;;;;17.50;54.08;101217.88;4944002;28;45311;-48
2022/06/06 02:57:27;;;;;;;;;5.25;4.00;;;;;17.47;53.60;101218.00;4942774;28;45510;-48
2022/06/06 02:59:57;;;;;;;;;5.25;4.00;;;;;17.44;53.88;101214.56;4944151;28;45529;-46
2022/06/06 03:02:22;;;;;;;;;4.50;4.50;;;;;17.40;54.01;101210.31;4943872;28;46094;-49
2022/06/06 03:04:47;;;;;;;;;3.25;3.25;;;;;17.35;53.63;101213.13;4944157;28;45324;-44
2022/06/06 03:07:46;;;;;;;;;5.25;5.00;;;;;17.27;53.79;101208.06;4942982;28;45422;-47
2022/06/06 03:10:59;;;;;;;;;5.25;4.25;;;;;17.25;53.72;101212.56;4943789;28;45463;-50
2022/06/06 03:14:02;;;;;;;;;4.25;4.00;;;;;17.20;53.89;101217.16;4939866;28;45524;-48
2022/06/06 03:23:14;;;;;;;;;7.00;5.25;;;;;17.01;53.68;101223.09;4943659;28;45340;-48
2022/06/06 03:26:12;;;;;;;;;4.00;4.00;;;;;16.96;53.83;101230.34;4934637;28;46216;-44
2022/06/06 03:28:59;;;;;;;;;4.00;4.00;;;;;16.92;53.61;101230.47;4943587;28;45291;-45
2022/06/06 03:31:37;;;;;;;;;3.00;3.00;;;;;16.88;53.62;101233.22;4943595;28;45259;-47
2022/06/06 03:34:20;;;;;;;;;6.00;6.00;;;;;16.84;53.95;101231.59;4943417;28;45550;-47
2022/06/06 03:36:58;;;;;;;;;5.25;4.00;;;;;16.82;53.72;101224.59;4943193;28;46218;-46
2022/06/06 03:39:47;;;;;;;;;4.00;4.00;;;;;16.79;53.55;101220.25;4942913;28;45331;-47
2022/06/06 03:42:27;;;;;;;;;3.00;3.00;;;;;16.74;53.88;101225.72;4943054;28;45477;-43
2022/06/06 03:45:07;;;;;;;;;4.00;3.25;;;;;16.71;53.76;101225.78;4943611;28;45295;-45
2022/06/06 03:48:07;;;;;;;;;4.00;3.75;;;;;16.69;53.79;101222.34;4926761;28;47488;-47
2022/06/06 03:51:06;;;;;;;;;4.00;3.75;;;;;16.64;53.83;101226.94;4943010;28;45542;-44
2022/06/06 03:53:57;;;;;;;;;6.75;4.75;;;;;16.62;54.02;101227.91;4943331;28;45236;-44
2022/06/06 03:56:43;;;;;;;;;4.75;3.75;;;;;16.58;53.80;101233.28;4943182;28;45499;-46
2022/06/06 03:59:09;;;;;;;;;5.00;3.25;;;;;16.54;54.20;101228.13;4941653;28;46165;-48
2022/06/06 04:01:39;;;;;;;;;4.00;4.00;;;;;16.52;53.65;101235.28;4942976;28;45360;-46
2022/06/06 04:04:05;;;;;;;;;6.00;5.00;;;;;16.50;53.68;101242.41;4943174;28;45329;-48
2022/06/06 04:06:32;;;;;;;;;4.75;4.75;;;;;16.47;53.78;101243.38;4941753;28;45611;-51
2022/06/06 04:08:57;;;;;;;;;5.00;4.50;;;;;16.43;53.67;101241.72;4943191;28;46192;-46
2022/06/06 04:11:30;;;;;;;;;3.25;3.00;;;;;16.42;53.83;101242.63;4923131;28;45371;-47
2022/06/06 04:14:36;;;;;;;;;5.75;4.00;;;;;16.40;53.94;101255.06;4943000;28;45557;-44
2022/06/06 04:17:19;;;;;;;;;6.75;5.75;;;;;16.37;53.88;101257.81;4942037;28;45251;-45
2022/06/06 04:20:06;;;;;;;;;7.00;5.25;;;;;16.35;54.07;101259.66;4942828;28;45434;-46
2022/06/06 04:22:32;;;;;;;;;4.50;4.50;;;;;16.31;54.18;101260.66;4942778;28;45268;-44
2022/06/06 04:25:17;;;;;;;;;3.00;3.00;;;;;16.25;54.14;101254.63;4942787;28;45522;-44
2022/06/06 04:27:55;;;;;;;;;5.25;5.00;;;;;16.22;54.09;101262.66;4942539;28;45254;-45
2022/06/06 04:30:35;;;;;;;;;4.00;4.00;;;;;16.19;54.00;101260.13;4942739;28;45269;-45
2022/06/06 04:33:12;;;;;;;;;3.25;3.25;;;;;16.18;54.08;101263.66;4942405;28;45496;-45
2022/06/06 04:35:50;;;;;;;;;6.00;4.00;;;;;16.16;54.24;101257.56;4942588;28;45356;-44
2022/06/06 04:38:27;;;;;;;;;3.75;3.75;;;;;16.16;53.81;101262.88;4943019;28;45256;-45
2022/06/06 04:41:02;;;;;;;;;7.00;3.25;;;;;16.14;53.82;101255.84;4942325;28;46558;-44
2022/06/06 04:43:39;;;;;;;;;3.75;3.75;;;;;16.11;53.78;101256.81;4942378;28;45406;-44
2022/06/06 04:46:40;;;;;;;;;3.75;3.75;;;;;16.06;53.53;101256.06;4942477;28;45390;-45
2022/06/06 04:49:07;;;;;;;;;3.75;2.50;;;;;16.05;53.77;101263.16;4921521;28;45291;-44
2022/06/06 04:51:34;;;;;;;;;4.50;3.00;;;;;16.00;53.70;101253.59;4942336;28;45177;-45
2022/06/06 04:54:05;;;;;;;;;3.00;3.00;;;;;16.01;54.08;101255.34;4942371;28;45311;-46
2022/06/06 04:56:32;;;;;;;;;5.00;2.00;;;;;15.97;54.03;101248.41;4941241;28;45368;-46
2022/06/06 04:59:00;;;;;;;;;3.00;2.25;;;;;15.98;53.92;101255.44;4940621;28;45272;-46
2022/06/06 05:01:26;;;;;;;;;4.00;2.50;;;;;15.97;54.07;101248.41;4942047;28;46244;-45
2022/06/06 05:03:52;;;;;;;;;2.00;2.00;;;;;15.95;53.84;101255.50;4942048;28;45328;-47
2022/06/06 05:06:33;;;;;;;;;1.00;1.00;;;;;15.96;53.61;101257.25;4942447;28;45339;-44
2022/06/06 05:09:32;;;;;;;;;0.00;0.00;;;;;15.95;54.01;101250.22;4942245;28;45318;-42
2022/06/06 05:12:19;;;;;;;;;3.00;3.00;;;;;15.96;54.12;101251.94;4941776;28;46443;-47
2022/06/06 05:15:05;;;;;;;;;2.00;2.00;;;;;15.98;53.96;101252.78;4941765;28;45239;-46
2022/06/06 05:18:08;;;;;;;;;2.00;2.00;;;;;15.99;54.05;101255.38;4942115;28;45320;-45
2022/06/06 05:21:17;;;;;;;;;1.00;1.00;;;;;16.02;53.83;101257.06;4942007;28;45309;-45
2022/06/06 05:24:10;;;;;;;;;2.50;1.00;;;;;16.01;53.78;101258.88;4931597;28;46196;-50
2022/06/06 05:27:10;;;;;;;;;1.50;1.00;;;;;16.00;53.61;101265.09;4942219;28;45259;-47
2022/06/06 05:29:54;;;;;;;;;2.50;2.50;;;;;16.00;53.84;101269.50;4941821;28;45386;-48
2022/06/06 05:32:22;;;;;;;;;1.00;1.00;;;;;15.97;53.99;101265.16;4941650;28;45352;-46
2022/06/06 05:34:57;;;;;;;;;1.00;1.00;;;;;15.96;53.75;101265.19;4941785;28;46402;-43
2022/06/06 05:37:57;;;;;;;;;1.00;1.00;;;;;15.91;53.91;101263.56;4941695;28;45291;-47
2022/06/06 05:40:47;;;;;;;;;2.00;1.50;;;;;15.92;53.96;101261.78;4941679;28;46540;-46
2022/06/06 05:43:30;;;;;;;;;1.00;1.00;;;;;15.90;53.70;101263.63;4941343;28;45401;-47
2022/06/06 05:46:20;;;;;;;;;1.00;1.00;;;;;15.86;53.49;101268.13;4941452;28;46568;-46
2022/06/06 05:48:45;;;;;;;;;0.50;0.50;;;;;15.85;53.50;101265.53;4941336;28;45496;-48
2022/06/06 05:51:25;;;;;;;;;0.75;0.75;;;;;15.84;53.59;101267.28;4941692;28;45232;-46
2022/06/06 05:54:09;;;;;;;;;1.00;1.00;;;;;15.87;53.64;101276.94;4941675;28;45302;-47
2022/06/06 05:56:47;;;;;;;;;1.00;1.00;;;;;15.83;53.42;101277.94;4941466;28;46148;-48
2022/06/06 05:59:38;;;;;;;;;3.00;2.00;;;;;15.83;53.42;101277.94;4941433;28;45453;-50
2022/06/06 06:02:22;;;;;;;;;0.75;0.75;;;;;15.85;53.50;101281.44;4943903;28;45248;-45
2022/06/06 06:05:20;;;;;;;;;0.75;0.75;;;;;15.86;53.87;101288.44;4944917;28;45244;-45
2022/06/06 06:08:00;;;;;;;;;2.25;1.00;;;;;15.87;53.61;101287.53;4944897;28;45355;-47
2022/06/06 06:10:52;;;;;;;;;1.00;1.00;;;;;15.90;53.91;101285.66;4944633;28;45366;-46
2022/06/06 06:13:56;;;;;;;;;2.00;2.00;;;;;15.86;53.52;101285.78;4943136;28;45320;-47
2022/06/06 06:16:26;;;;;;;;;2.00;2.00;;;;;15.88;53.67;101286.63;4904252;28;45396;-45
2022/06/06 06:19:06;;;;;;;;;3.00;3.00;;;;;15.90;53.61;101290.97;4938109;28;45246;-47
2022/06/06 06:21:41;;;;;;;;;1.75;1.75;;;;;15.91;53.85;101291.81;4943340;28;45519;-47
2022/06/06 06:24:09;;;;;;;;;1.25;1.25;;;;;15.94;53.99;101294.41;4944769;28;45334;-46
2022/06/06 06:26:36;;;;;;;;;2.00;2.00;;;;;15.96;53.62;101294.34;4944542;28;45165;-45
2022/06/06 06:29:04;;;;;;;;;4.25;1.25;;;;;15.97;53.68;101301.41;4944417;28;45433;-44
2022/06/06 06:31:56;;;;;;;;;3.00;3.00;;;;;15.95;53.39;101303.22;4944445;28;45414;-46
2022/06/06 06:34:43;;;;;;;;;1.00;1.00;;;;;15.99;53.74;101294.28;4944464;28;45493;-44
2022/06/06 06:37:31;;;;;;;;;1.00;1.00;;;;;16.02;53.92;101304.78;4944549;28;45406;-48
2022/06/06 06:40:23;;;;;;;;;1.00;1.00;;;;;16.01;53.90;101306.59;4944187;28;45548;-44
2022/06/06 06:43:07;;;;;;;;;3.00;1.75;;;;;16.06;53.97;101307.31;4944120;28;45310;-46
2022/06/06 06:45:42;;;;;;;;;2.00;2.00;;;;;16.09;53.82;101303.72;4944322;28;45489;-50
2022/06/06 06:48:12;;;;;;;;;3.00;1.75;;;;;16.14;53.45;101308.88;4944500;28;45362;-45
2022/06/06 06:50:51;;;;;;;;;1.50;1.00;;;;;16.15;53.98;101314.16;4943933;28;45427;-47
2022/06/06 06:53:33;;;;;;;;;2.75;2.00;;;;;16.18;54.03;101314.06;4944286;28;45362;-46
2022/06/06 06:56:12;;;;;;;;;2.00;2.00;;;;;16.19;53.93;101310.50;4944367;28;45449;-46
2022/06/06 06:58:46;;;;;;;;;1.00;1.00;;;;;16.20;53.79;101308.69;4943827;28;45311;-44
2022/06/06 07:01:18;;;;;;;;;1.00;1.00;;;;;16.20;53.51;101304.28;4943963;28;45180;-45
2022/06/06 07:10:22;;;;;;;;;3.00;2.00;;;;;16.30;53.80;101306.66;4943823;28;45348;-45
2022/06/06 07:13:18;;;;;;;;;1.75;1.75;;;;;16.30;53.71;101306.66;4943745;28;45433;-47
2022/06/06 07:15:57;;;;;;;;;1.75;1.75;;;;;16.33;53.42;101302.13;4934178;28;45383;-45
2022/06/06 07:18:29;;;;;;;;;2.25;1.00;;;;;16.36;53.66;101312.66;4943897;28;45235;-46
2022/06/06 07:20:58;;;;;;;;;1.00;1.00;;;;;16.40;53.66;101305.47;4942644;28;45288;-44
2022/06/06 07:23:29;;;;;;;;;1.00;1.00;;;;;16.47;53.34;101311.47;4943878;28;46265;-45
2022/06/06 07:25:56;;;;;;;;;2.00;1.00;;;;;16.51;53.36;101306.00;4943660;28;45403;-45
2022/06/06 07:28:23;;;;;;;;;1.25;1.25;;;;;16.50;53.45;101303.41;4943783;28;45250;-45
2022/06/06 07:30:55;;;;;;;;;1.00;1.00;;;;;16.52;53.63;101297.13;4943418;28;45596;-46
2022/06/06 07:34:01;;;;;;;;;3.00;2.00;;;;;16.57;53.18;101299.66;4943699;28;45359;-45
2022/06/06 07:37:23;;;;;;;;;2.00;2.00;;;;;16.65;53.67;101288.81;4943905;28;45652;-47
2022/06/06 07:40:19;;;;;;;;;0.75;0.50;;;;;16.70;53.30;101290.44;4903515;29;45354;-47
2022/06/06 07:43:05;;;;;;;;;2.50;0.50;;;;;16.71;53.27;101294.78;4902852;29;45398;-46
2022/06/06 07:45:39;;;;;;;;;1.25;1.25;;;;;16.79;53.29;101289.25;4940582;28;45241;-49
2022/06/06 07:48:24;;;;;;;;;1.00;1.00;;;;;16.85;53.18;101286.38;4943592;28;45284;-47
2022/06/06 07:51:18;;;;;;;;;3.00;1.00;;;;;16.91;53.19;101293.34;4942079;28;45272;-45
2022/06/06 07:54:08;;;;;;;;;1.50;1.25;;;;;16.97;52.99;101300.25;4943478;28;45402;-48
2022/06/06 07:56:45;;;;;;;;;1.00;1.00;;;;;16.99;53.20;101290.44;4943193;28;45169;-48
2022/06/06 07:59:30;;;;;;;;;2.50;2.00;;;;;17.03;53.05;101287.63;4941960;28;45439;-48
2022/06/06 08:02:13;;;;;;;;;2.00;1.00;;;;;17.09;52.89;101283.91;4943120;28;45347;-47
2022/06/06 08:04:39;;;;;;;;;2.00;1.00;;;;;17.15;53.23;101283.69;4943164;28;45383;-49
2022/06/06 08:07:24;;;;;;;;;1.00;1.00;;;;;17.14;52.93;101281.94;4942896;28;45380;-47
2022/06/06 08:10:14;;;;;;;;;4.00;2.25;;;;;17.21;52.49;101290.59;4943199;28;45335;-47
2022/06/06 08:13:01;;;;;;;;;2.00;2.00;;;;;17.26;52.57;101282.47;4943184;28;45355;-48
2022/06/06 08:16:05;;;;;;;;;0.75;0.75;;;;;17.32;52.41;101282.25;4931476;28;45306;-45
2022/06/06 08:18:33;;;;;;;;;0.75;0.75;;;;;17.40;52.35;101279.38;4927515;28;45392;-47
2022/06/06 08:21:23;;;;;;;;;1.50;0.75;;;;;17.46;52.40;101276.47;4942912;28;45514;-48
2022/06/06 08:23:52;;;;;;;;;0.25;0.25;;;;;17.51;52.42;101277.22;4941203;28;45386;-44
2022/06/06 08:26:19;;;;;;;;;1.00;1.00;;;;;17.53;52.17;101276.25;4941529;28;45264;-45
2022/06/06 08:28:45;;;;;;;;;0.25;0.00;;;;;17.62;52.26;101272.38;4942473;28;46328;-46
2022/06/06 08:31:11;;;;;;;;;2.00;1.00;;;;;17.68;52.03;101276.59;4942450;28;45351;-44
2022/06/06 08:33:36;;;;;;;;;0.75;0.75;;;;;17.75;51.69;101274.59;4942854;28;45536;-47
2022/06/06 08:36:31;;;;;;;;;1.50;1.50;;;;;17.84;51.95;101267.16;4942663;28;45399;-47
2022/06/06 08:39:34;;;;;;;;;2.00;1.25;;;;;17.93;51.94;101265.09;4905108;28;45467;-46
2022/06/06 08:42:11;;;;;;;;;2.00;2.00;;;;;17.97;51.63;101272.91;4942263;28;45512;-49
2022/06/06 08:45:06;;;;;;;;;1.00;1.00;;;;;18.07;51.57;101262.81;4942897;28;45310;-45
2022/06/06 08:48:02;;;;;;;;;0.00;0.00;;;;;18.09;51.36;101260.97;4942540;28;45344;-47
2022/06/06 08:50:48;;;;;;;;;1.00;1.00;;;;;18.13;51.23;101262.59;4941969;28;46458;-48
2022/06/06 08:54:05;;;;;;;;;0.00;0.00;;;;;18.18;50.97;101265.94;4942099;28;45347;-45
2022/06/06 08:56:53;;;;;;;;;1.00;1.00;;;;;18.20;51.25;101257.91;4925507;28;45482;-45
2022/06/06 08:59:45;;;;;;;;;1.00;1.00;;;;;18.28;50.86;101265.59;4941236;28;45415;-45
2022/06/06 09:02:28;;;;;;;;;1.75;1.00;;;;;18.36;50.93;101263.50;4942065;28;47048;-49
2022/06/06 09:05:15;;;;;;;;;1.00;1.00;;;;;18.41;50.83;101271.31;4942208;28;45271;-47
2022/06/06 09:08:29;;;;;;;;;1.00;1.00;;;;;18.44;50.61;101269.41;4941143;28;45463;-47
2022/06/06 09:11:12;;;;;;;;;2.00;1.50;;;;;18.49;50.75;101274.56;4937275;28;45297;-46
2022/06/06 09:14:24;;;;;;;;;1.00;1.00;;;;;18.48;50.41;101273.66;4941707;28;45287;-46
2022/06/06 09:17:23;;;;;;;;;0.00;0.00;;;;;18.58;50.20;101270.63;4941986;28;45346;-47
2022/06/06 09:20:23;;;;;;;;;2.00;0.25;;;;;18.64;50.22;101265.06;4942225;28;45339;-45
2022/06/06 09:23:08;;;;;;;;;1.75;1.75;;;;;18.67;50.18;101278.28;4941926;28;45192;-45
2022/06/06 09:26:23;;;;;;;;;1.00;1.00;;;;;18.68;50.12;101267.56;4941762;28;46468;-44
2022/06/06 09:29:34;;;;;;;;;1.00;1.00;;;;;18.81;49.94;101261.75;4901318;29;45399;-44
2022/06/06 09:32:36;;;;;;;;;1.00;1.00;;;;;18.91;49.81;101268.47;4941921;28;45550;-45
2022/06/06 09:35:39;;;;;;;;;0.25;0.25;;;;;18.91;49.51;101264.94;4941051;28;45395;-44
2022/06/06 09:38:17;;;;;;;;;1.00;1.00;;;;;18.94;49.41;101264.81;4940494;28;45520;-45
2022/06/06 09:41:04;;;;;;;;;0.25;0.25;;;;;18.97;49.38;101260.22;4941372;28;45304;-45
2022/06/06 09:44:04;;;;;;;;;0.00;0.00;;;;;19.04;49.22;101260.81;4941694;28;45172;-48
2022/06/06 09:47:03;;;;;;;;;1.00;1.00;;;;;19.13;49.30;101263.13;4941701;28;45359;-44
2022/06/06 09:49:48;;;;;;;;;0.00;0.00;;;;;19.14;49.19;101263.97;4941456;28;45743;-46
2022/06/06 09:52:32;;;;;;;;;0.00;0.00;;;;;19.11;48.82;101254.31;4941402;28;45374;-44
2022/06/06 10:00:47;;;;;;;;;10.25;8.75;;;;;19.27;48.95;101245.66;4941226;28;45263;-48
2022/06/06 10:03:31;;;;;;;;;61.50;48.25;;;;;19.35;48.36;101248.03;4941084;28;45265;-45
2022/06/06 10:06:36;;;;;;;;;7.50;5.25;;;;;19.46;48.22;101254.63;4941577;28;45382;-48
2022/06/06 10:09:38;;;;;;;;;9.75;8.25;;;;;19.64;48.11;101247.59;4941150;28;45324;-47
2022/06/06 10:12:29;;;;;;;;;88.75;77.25;;;;;19.80;48.46;101252.28;4941189;28;45598;-47
2022/06/06 10:15:03;;;;;;;;;9.25;9.25;;;;;19.87;47.99;101248.41;4940805;28;45265;-45
2022/06/06 10:18:02;;;;;;;;;0.75;0.00;;;;;20.00;48.29;101250.53;4941307;28;45250;-44
2022/06/06 10:20:42;;;;;;;;;0.00;0.00;;;;;20.07;47.98;101254.66;4920718;28;45381;-47
2022/06/06 10:23:28;;;;;;;;;1.00;1.00;;;;;20.18;47.39;101252.34;4938463;28;46094;-46
2022/06/06 10:26:06;;;;;;;;;1.50;1.00;;;;;20.34;47.78;101251.63;4940583;28;45280;-46
2022/06/06 10:29:05;;;;;;;;;0.50;0.50;;;;;20.47;47.30;101260.78;4941211;28;45236;-50
2022/06/06 10:31:33;;;;;;;;;2.00;0.00;;;;;20.52;47.90;101258.75;4924987;28;45480;-46
2022/06/06 10:34:43;;;;;;;;;1.00;0.00;;;;;20.60;47.16;101259.28;4940753;28;45317;-47
2022/06/06 10:37:44;;;;;;;;;1.00;1.00;;;;;20.73;46.99;101264.91;4938800;28;45295;-47
2022/06/06 10:40:24;;;;;;;;;0.25;0.25;;;;;20.83;47.19;101267.13;4940719;28;45338;-44
2022/06/06 10:43:06;;;;;;;;;1.75;0.00;;;;;20.95;47.57;101271.84;4952765;28;45486;-44
2022/06/06 10:45:37;;;;;;;;;0.00;0.00;;;;;21.08;47.19;101259.63;4940772;28;45259;-44
2022/06/06 10:48:28;;;;;;;;;1.25;1.00;;;;;21.22;47.01;101256.25;4943068;28;45348;-47
2022/06/06 10:54:15;;;;;;;;;2.75;1.00;;;;;21.70;47.38;101248.47;4944154;28;45320;-46
2022/06/06 10:57:14;;;;;;;;;1.00;1.00;;;;;21.91;47.11;101243.78;4943754;28;46357;-47
2022/06/06 11:00:02;;;;;;;;;1.00;1.00;;;;;22.05;47.21;101240.34;4955124;28;45371;-44
2022/06/06 11:02:47;;;;;;;;;0.25;0.25;;;;;22.17;46.57;101243.31;4932251;28;45319;-46
2022/06/06 11:05:21;;;;;;;;;0.75;0.75;;;;;22.32;46.82;101247.81;4943822;28;45389;-47
2022/06/06 11:07:55;;;;;;;;;0.00;0.00;;;;;22.56;46.01;101236.69;4942566;28;45654;-47
2022/06/06 11:10:42;;;;;;;;;0.00;0.00;;;;;22.90;45.86;101248.13;4943693;28;45327;-45
2022/06/06 11:13:22;;;;;;;;;1.00;0.00;;;;;23.21;46.02;101244.56;4942344;28;45432;-44
2022/06/06 11:16:17;;;;;;;;;0.00;0.00;;;;;23.56;46.39;101253.25;4943640;28;45324;-48
2022/06/06 11:18:58;;;;;;;;;1.00;1.00;;;;;23.93;46.01;101241.13;4943826;28;46350;-45
2022/06/06 11:21:32;;;;;;;;;0.00;0.00;;;;;24.25;45.83;101248.09;4942360;28;45479;-44
2022/06/06 11:24:14;;;;;;;;;0.00;0.00;;;;;24.50;45.30;101242.88;4943991;28;45380;-49
2022/06/06 11:27:00;;;;;;;;;0.00;0.00;;;;;24.63;45.46;101240.25;4943446;28;45451;-46
2022/06/06 11:29:56;;;;;;;;;0.25;0.25;;;;;24.76;44.86;101244.84;4955003;28;48488;-46
2022/06/06 11:32:51;;;;;;;;;0.00;0.00;;;;;24.67;45.11;101249.84;4943337;28;45391;-44
2022/06/06 11:35:22;;;;;;;;;0.25;0.00;;;;;24.65;44.76;101249.09;4928815;28;45365;-43
2022/06/06 11:38:08;;;;;;;;;0.75;0.00;;;;;24.63;44.17;101239.38;4943477;28;45233;-44
2022/06/06 11:40:56;;;;;;;;;0.50;0.50;;;;;24.54;43.91;101238.16;4941803;28;47090;-44
2022/06/06 11:43:55;;;;;;;;;0.00;0.00;;;;;24.52;43.99;101248.13;4943300;28;45415;-49
2022/06/06 11:46:58;;;;;;;;;2.00;0.00;;;;;24.45;43.57;101254.88;4943713;28;45513;-44
2022/06/06 11:49:46;;;;;;;;;0.75;0.75;;;;;24.44;43.36;101245.06;4941856;28;45388;-43
2022/06/06 11:52:20;;;;;;;;;0.00;0.00;;;;;24.38;43.70;101248.16;4943023;28;45271;-46
2022/06/06 11:55:16;;;;;;;;;1.00;1.00;;;;;24.25;43.66;101253.47;4943248;28;45459;-44
2022/06/06 11:58:03;;;;;;;;;0.50;0.50;;;;;24.24;43.22;101249.94;4943091;28;45370;-45
2022/06/06 12:00:50;;;;;;;;;0.75;0.75;;;;;24.29;42.76;101246.97;4942550;28;45224;-44
2022/06/06 12:03:24;;;;;;;;;1.00;1.00;;;;;24.27;42.62;101240.81;4942929;28;45430;-44
2022/06/06 12:06:14;;;;;;;;;0.00;0.00;;;;;24.29;42.56;101238.91;4943371;28;45492;-49
2022/06/06 12:08:57;;;;;;;;;1.00;0.00;;;;;24.32;42.39;101227.94;4943245;28;45307;-47
2022/06/06 12:11:50;;;;;;;;;1.50;0.00;;;;;24.37;41.93;101231.19;4942936;28;45449;-46
2022/06/06 12:14:16;;;;;;;;;1.00;0.00;;;;;24.19;41.97;101230.56;4942692;28;46187;-49
2022/06/06 12:16:59;;;;;;;;;1.00;0.00;;;;;24.07;42.05;101236.72;4942685;28;45474;-46
2022/06/06 12:19:39;;;;;;;;;0.75;0.75;;;;;24.03;42.10;101230.69;4942994;28;45378;-44
2022/06/06 12:22:32;;;;;;;;;0.00;0.00;;;;;23.93;41.82;101226.84;4942961;28;45377;-44
2022/06/06 12:25:21;;;;;;;;;1.00;0.25;;;;;23.89;41.56;101231.50;4941216;28;45373;-48
2022/06/06 12:28:17;;;;;;;;;1.25;1.00;;;;;23.85;42.06;101220.09;4935789;28;45466;-49
2022/06/06 12:31:07;;;;;;;;;1.25;1.00;;;;;23.88;41.81;101212.84;4942775;28;45493;-46
2022/06/06 12:33:43;;;;;;;;;1.00;1.00;;;;;23.87;41.34;101211.97;4942641;28;45493;-47
2022/06/06 12:36:15;;;;;;;;;2.00;0.00;;;;;23.97;41.79;101206.91;4941332;28;46116;-47
2022/06/06 12:38:56;;;;;;;;;0.00;0.00;;;;;23.98;41.47;101225.59;4942672;28;45330;-44
2022/06/06 12:41:52;;;;;;;;;1.50;1.00;;;;;23.95;41.60;101209.69;4942448;28;45184;-45
2022/06/06 12:44:40;;;;;;;;;1.00;0.75;;;;;23.94;41.49;101209.81;4941093;28;45541;-45
2022/06/06 12:47:17;;;;;;;;;0.00;0.00;;;;;24.01;41.29;101195.88;4942145;28;46060;-46
2022/06/06 12:49:58;;;;;;;;;1.00;1.00;;;;;24.16;41.10;101190.47;4942320;28;45272;-49
2022/06/06 12:52:53;;;;;;;;;7.75;7.75;;;;;24.21;41.02;101196.41;4942274;28;45252;-48
2022/06/06 12:55:33;;;;;;;;;16.50;16.50;;;;;24.28;40.82;101199.59;4941922;28;45153;-45